createdAt,value
2018-12-02T00:00:34.271Z,96.70
2018-12-02T00:03:03.261Z,97.40
2018-12-02T00:05:31.452Z,97.10
2018-12-02T00:07:59.743Z,97.50
2018-12-02T00:10:28.002Z,96.80
2018-12-02T00:12:56.175Z,96.30
2018-12-02T00:15:28.511Z,97.70
2018-12-02T00:17:59.066Z,97.10
2018-12-02T00:20:27.247Z,97.00
2018-12-02T00:22:55.394Z,97.70
2018-12-02T00:25:23.491Z,97.80
2018-12-02T00:27:53.904Z,98.00
2018-12-02T00:30:25.556Z,97.80
2018-12-02T00:32:53.705Z,99.10
2018-12-02T00:35:21.868Z,98.70
2018-12-02T00:37:51.305Z,98.60
2018-12-02T00:40:21.473Z,99.40
2018-12-02T00:42:53.042Z,98.90
2018-12-02T00:45:22.445Z,99.30
2018-12-02T00:47:50.586Z,99.60
2018-12-02T00:50:19.066Z,99.20
2018-12-02T00:52:49.546Z,98.90
2018-12-02T00:55:20.160Z,98.80
2018-12-02T00:57:48.496Z,98.60
2018-12-02T01:00:17.014Z,98.70
2018-12-02T01:02:45.976Z,98.70
2018-12-02T01:05:15.168Z,98.50
2018-12-02T01:07:43.320Z,98.90
2018-12-02T01:10:14.533Z,98.80
2018-12-02T01:12:42.734Z,98.50
2018-12-02T01:15:13.026Z,98.50
2018-12-02T01:17:41.234Z,98.30
2018-12-02T01:20:11.751Z,98.40
2018-12-02T01:22:39.859Z,98.20
2018-12-02T01:25:10.357Z,98.10
2018-12-02T01:27:38.447Z,97.80
2018-12-02T01:30:28.001Z,97.70
2018-12-02T01:32:56.229Z,97.40
2018-12-02T01:35:24.407Z,97.10
2018-12-02T01:37:52.518Z,96.50
2018-12-02T01:40:22.739Z,96.50
2018-12-02T01:42:51.571Z,95.70
2018-12-02T01:45:20.543Z,95.00
2018-12-02T01:47:48.695Z,95.10
2018-12-02T01:50:17.810Z,94.50
2018-12-02T01:52:47.946Z,93.80
2018-12-02T01:55:16.090Z,93.10
2018-12-02T01:57:44.225Z,92.10
2018-12-02T02:00:29.303Z,91.60
2018-12-02T02:02:57.508Z,91.00
2018-12-02T02:05:26.426Z,90.40
2018-12-02T02:07:54.564Z,90.10
2018-12-02T02:10:23.794Z,90.70
2018-12-02T02:12:51.931Z,89.70
2018-12-02T02:15:20.132Z,89.90
2018-12-02T02:17:48.317Z,89.60
2018-12-02T02:20:17.439Z,89.60
2018-12-02T02:22:46.111Z,89.90
2018-12-02T02:25:15.212Z,89.20
2018-12-02T02:27:45.498Z,89.10
2018-12-02T02:30:16.551Z,88.80
2018-12-02T02:32:44.685Z,88.30
2018-12-02T02:35:13.092Z,89.00
2018-12-02T02:37:41.428Z,89.10
2018-12-02T02:40:13.700Z,89.20
2018-12-02T02:42:41.853Z,89.30
2018-12-02T02:45:10.910Z,89.10
2018-12-02T02:47:39.002Z,88.60
2018-12-02T02:50:15.274Z,88.70
2018-12-02T02:52:44.657Z,88.60
2018-12-02T02:55:12.775Z,88.70
2018-12-02T02:57:40.876Z,89.30
2018-12-02T03:00:12.463Z,88.70
2018-12-02T03:02:40.728Z,88.60
2018-12-02T03:05:09.774Z,88.80
2018-12-02T03:07:37.924Z,88.30
2018-12-02T03:10:09.370Z,87.90
2018-12-02T03:12:37.529Z,87.80
2018-12-02T03:15:08.166Z,87.10
2018-12-02T03:17:36.308Z,86.40
2018-12-02T03:20:06.444Z,86.90
2018-12-02T03:22:34.587Z,86.80
2018-12-02T03:25:02.712Z,87.00
2018-12-02T03:27:30.854Z,86.20
2018-12-02T03:29:58.957Z,85.70
2018-12-02T03:32:27.063Z,85.40
2018-12-02T03:34:55.199Z,85.30
2018-12-02T03:37:23.309Z,85.10
2018-12-02T03:39:51.429Z,85.60
2018-12-02T03:42:19.563Z,85.20
2018-12-02T03:44:47.694Z,84.30
2018-12-02T03:47:15.806Z,84.80
2018-12-02T03:49:43.908Z,84.90
2018-12-02T03:52:12.042Z,85.60
2018-12-02T03:54:40.208Z,85.30
2018-12-02T03:57:08.351Z,85.30
2018-12-02T03:59:36.488Z,85.10
2018-12-02T04:02:04.658Z,84.90
2018-12-02T04:04:32.769Z,84.90
2018-12-02T04:07:00.913Z,83.60
2018-12-02T04:09:29.094Z,83.90
2018-12-02T04:11:57.216Z,84.00
2018-12-02T04:14:26.107Z,84.00
2018-12-02T04:16:54.260Z,84.60
2018-12-02T04:19:22.409Z,84.10
2018-12-02T04:21:50.546Z,84.40
2018-12-02T04:24:18.658Z,84.00
2018-12-02T04:26:46.807Z,83.50
2018-12-02T04:29:14.951Z,83.70
2018-12-02T04:31:43.053Z,83.20
2018-12-02T04:34:11.175Z,82.90
2018-12-02T04:36:39.347Z,82.30
2018-12-02T04:39:08.590Z,82.20
2018-12-02T04:41:36.863Z,82.10
2018-12-02T04:44:05.195Z,81.50
2018-12-02T04:46:33.310Z,80.80
2018-12-02T04:49:01.421Z,80.70
2018-12-02T04:51:29.562Z,81.60
2018-12-02T04:53:58.113Z,81.90
2018-12-02T04:56:26.311Z,80.60
2018-12-02T04:58:54.424Z,80.50
2018-12-02T05:01:22.547Z,81.70
2018-12-02T05:03:50.680Z,81.50
2018-12-02T05:06:18.805Z,81.20
2018-12-02T05:08:46.925Z,81.00
2018-12-02T05:11:15.068Z,80.20
2018-12-02T05:13:43.217Z,79.80
2018-12-02T05:16:11.342Z,79.60
2018-12-02T05:18:39.500Z,78.20
2018-12-02T05:21:07.639Z,77.90
2018-12-02T05:23:35.790Z,78.00
2018-12-02T05:26:03.937Z,78.50
2018-12-02T05:28:32.074Z,78.70
2018-12-02T05:31:00.219Z,78.90
2018-12-02T05:33:28.405Z,78.00
2018-12-02T05:35:56.595Z,78.30
2018-12-02T05:38:24.704Z,78.10
2018-12-02T05:40:52.878Z,77.90
2018-12-02T05:43:20.985Z,78.30
2018-12-02T05:45:49.094Z,77.80
2018-12-02T05:48:17.262Z,77.60
2018-12-02T05:50:45.651Z,78.50
2018-12-02T05:53:13.795Z,78.90
2018-12-02T05:55:41.941Z,76.50
2018-12-02T05:58:10.065Z,76.70
2018-12-02T06:00:38.217Z,76.40
2018-12-02T06:03:06.802Z,76.00
2018-12-02T06:05:34.983Z,74.90
2018-12-02T06:08:03.070Z,74.50
2018-12-02T06:10:31.200Z,74.80
2018-12-02T06:12:59.419Z,73.80
2018-12-02T06:15:27.542Z,74.00
2018-12-02T06:17:55.653Z,74.30
2018-12-02T06:20:24.803Z,74.30
2018-12-02T06:22:54.848Z,72.20
2018-12-02T06:25:23.099Z,72.80
2018-12-02T06:27:51.137Z,71.50
2018-12-02T06:30:24.231Z,73.70
2018-12-02T06:33:01.334Z,75.10
2018-12-02T06:35:29.478Z,76.50
2018-12-02T06:37:58.654Z,77.20
2018-12-02T06:40:27.682Z,76.90
2018-12-02T06:42:55.922Z,77.60
2018-12-02T06:45:24.054Z,77.90
2018-12-02T06:47:52.191Z,78.90
2018-12-02T06:50:27.124Z,78.60
2018-12-02T06:52:56.021Z,79.20
2018-12-02T06:55:49.695Z,78.90
2018-12-02T06:59:36.739Z,78.80
2018-12-02T07:02:14.757Z,77.40
2018-12-02T07:04:43.914Z,76.20
2018-12-02T07:07:12.035Z,76.00
2018-12-02T07:09:40.203Z,75.10
2018-12-02T07:12:08.379Z,76.00
2018-12-02T07:14:38.514Z,76.50
2018-12-02T07:17:06.654Z,77.10
2018-12-02T07:19:39.246Z,76.10
2018-12-02T07:22:14.065Z,77.40
2018-12-02T07:24:42.214Z,78.50
2018-12-02T07:27:11.687Z,80.80
2018-12-02T07:29:39.802Z,80.90
2018-12-02T07:32:07.972Z,80.40
2018-12-02T07:34:36.152Z,80.50
2018-12-02T07:37:11.627Z,81.00
2018-12-02T07:39:46.259Z,81.20
2018-12-02T07:42:14.403Z,82.60
2018-12-02T07:44:42.524Z,83.60
2018-12-02T07:47:10.792Z,85.20
2018-12-02T07:49:39.193Z,86.30
2018-12-02T07:52:07.334Z,86.60
2018-12-02T07:54:35.454Z,87.30
2018-12-02T07:57:03.684Z,86.00
2018-12-02T07:59:31.823Z,85.30
2018-12-02T08:01:59.979Z,85.90
2018-12-02T08:04:28.094Z,84.40
2018-12-02T08:06:56.263Z,84.20
2018-12-02T08:09:24.420Z,81.60
2018-12-02T08:11:52.583Z,80.60
2018-12-02T08:14:20.757Z,80.00
2018-12-02T08:16:48.911Z,79.90
2018-12-02T08:19:17.074Z,80.20
2018-12-02T08:21:45.259Z,81.40
2018-12-02T08:24:13.409Z,81.90
2018-12-02T08:26:41.514Z,81.60
2018-12-02T08:29:09.679Z,82.90
2018-12-02T08:31:37.795Z,81.30
2018-12-02T08:34:05.929Z,80.90
2018-12-02T08:36:34.105Z,80.00
2018-12-02T08:39:02.243Z,79.40
2018-12-02T08:41:30.419Z,77.50
2018-12-02T08:43:58.571Z,77.10
2018-12-02T08:46:26.723Z,75.60
2018-12-02T08:48:54.855Z,75.50
2018-12-02T08:51:23.029Z,73.80
2018-12-02T08:53:51.286Z,73.50
2018-12-02T08:56:19.456Z,72.60
2018-12-02T08:58:47.595Z,72.50
2018-12-02T09:01:15.755Z,71.10
2018-12-02T09:03:43.862Z,70.70
2018-12-02T09:06:12.105Z,70.10
2018-12-02T09:08:40.283Z,69.90
2018-12-02T09:11:08.554Z,69.80
2018-12-02T09:13:36.680Z,68.20
2018-12-02T09:16:04.894Z,68.50
2018-12-02T09:18:33.043Z,68.00
2018-12-02T09:21:01.207Z,68.00
2018-12-02T09:23:29.345Z,67.30
2018-12-02T09:25:57.473Z,68.80
2018-12-02T09:28:25.581Z,69.00
2018-12-02T09:30:53.723Z,67.00
2018-12-02T09:33:21.835Z,67.20
2018-12-02T09:35:50.063Z,67.70
2018-12-02T09:38:18.239Z,67.00
2018-12-02T09:40:46.389Z,66.80
2018-12-02T09:43:14.595Z,67.00
2018-12-02T09:45:42.823Z,65.90
2018-12-02T09:48:11.035Z,66.80
2018-12-02T09:50:39.286Z,66.30
2018-12-02T09:53:07.469Z,65.80
2018-12-02T09:55:37.606Z,65.40
2018-12-02T09:58:07.580Z,64.80
2018-12-02T10:00:35.790Z,64.60
2018-12-02T10:03:04.547Z,64.50
2018-12-02T10:05:32.733Z,63.60
2018-12-02T10:08:00.997Z,65.30
2018-12-02T10:10:29.142Z,63.80
2018-12-02T10:12:58.898Z,62.10
2018-12-02T10:15:27.074Z,64.50
2018-12-02T10:17:55.207Z,63.10
2018-12-02T10:20:23.343Z,61.60
2018-12-02T10:22:51.465Z,63.80
2018-12-02T10:25:19.815Z,63.80
2018-12-02T10:27:48.025Z,64.20
2018-12-02T10:30:18.225Z,64.30
2018-12-02T10:32:46.362Z,65.90
2018-12-02T10:35:14.640Z,65.70
2018-12-02T10:37:42.863Z,66.10
2018-12-02T10:40:14.146Z,64.80
2018-12-02T10:42:42.437Z,64.40
2018-12-02T10:45:13.765Z,64.30
2018-12-02T10:47:42.129Z,64.60
2018-12-02T10:50:16.794Z,64.30
2018-12-02T10:56:24.597Z,65.20
2018-12-02T10:58:52.749Z,65.10
2018-12-02T11:01:25.187Z,66.00
2018-12-02T11:03:53.282Z,64.70
2018-12-02T11:06:21.470Z,65.00
2018-12-02T11:08:49.620Z,63.80
2018-12-02T11:11:17.892Z,65.90
2018-12-02T11:13:46.035Z,67.20
2018-12-02T11:16:14.193Z,69.80
2018-12-02T11:18:42.836Z,71.00
2018-12-02T11:21:10.998Z,74.20
2018-12-02T11:23:39.113Z,76.70
2018-12-02T11:26:07.267Z,76.30
2018-12-02T11:28:35.410Z,75.50
2018-12-02T11:31:03.598Z,77.80
2018-12-02T11:33:31.835Z,78.00
2018-12-02T11:35:59.966Z,78.60
2018-12-02T11:38:28.195Z,80.00
2018-12-02T11:40:58.584Z,81.70
2018-12-02T11:43:26.735Z,83.40
2018-12-02T11:45:54.847Z,84.10
2018-12-02T11:48:23.023Z,85.10
2018-12-02T11:50:51.146Z,86.20
2018-12-02T11:53:19.669Z,86.10
2018-12-02T11:55:48.148Z,87.90
2018-12-02T11:58:17.543Z,88.20
2018-12-02T12:00:55.605Z,88.70
2018-12-02T12:03:25.173Z,89.50
2018-12-02T12:05:57.661Z,90.10
2018-12-02T12:08:26.257Z,91.20
2018-12-02T12:10:54.667Z,91.30
2018-12-02T12:13:23.155Z,91.30
2018-12-02T12:15:51.647Z,91.70
2018-12-02T12:18:20.247Z,91.00
2018-12-02T12:20:48.769Z,90.40
2018-12-02T12:23:19.735Z,91.20
2018-12-02T12:25:48.198Z,91.60
2018-12-02T12:28:16.871Z,91.50
2018-12-02T12:30:45.345Z,91.70
2018-12-02T12:33:14.003Z,91.40
2018-12-02T12:35:47.022Z,92.20
2018-12-02T12:38:16.218Z,91.90
2018-12-02T12:40:45.163Z,92.20
2018-12-02T12:43:19.388Z,91.20
2018-12-02T12:45:47.575Z,92.30
2018-12-02T12:48:17.800Z,92.10
2018-12-02T12:50:45.970Z,91.70
2018-12-02T12:53:14.067Z,90.80
2018-12-02T12:55:42.169Z,90.00
2018-12-02T12:58:15.292Z,91.20
2018-12-02T13:00:43.462Z,91.20
2018-12-02T13:03:11.607Z,91.20
2018-12-02T13:05:39.771Z,90.60
2018-12-02T13:08:09.567Z,90.60
2018-12-02T13:10:37.673Z,90.70
2018-12-02T13:13:06.075Z,91.80
2018-12-02T13:15:39.731Z,92.10
2018-12-02T13:18:12.841Z,91.70
2018-12-02T13:20:47.032Z,92.30
2018-12-02T13:23:15.262Z,93.00
2018-12-02T13:25:43.394Z,93.00
2018-12-02T13:28:11.612Z,92.60
2018-12-02T13:30:39.790Z,92.40
2018-12-02T13:33:07.999Z,92.90
2018-12-02T13:35:37.356Z,92.80
2018-12-02T13:38:05.790Z,93.20
2018-12-02T13:40:34.018Z,92.80
2018-12-02T13:43:05.182Z,92.40
2018-12-02T13:45:33.315Z,93.10
2018-12-02T13:48:01.521Z,91.80
2018-12-02T13:50:29.749Z,92.60
2018-12-02T13:52:57.966Z,91.40
2018-12-02T13:55:32.745Z,92.00
2018-12-02T13:58:01.379Z,90.90
2018-12-02T14:00:30.432Z,89.90
2018-12-02T14:03:01.315Z,90.30
2018-12-02T14:05:29.487Z,89.10
2018-12-02T14:07:57.749Z,89.50
2018-12-02T14:10:25.999Z,89.80
2018-12-02T14:12:56.438Z,90.10
2018-12-02T14:15:29.459Z,90.00
2018-12-02T14:18:03.537Z,90.20
2018-12-02T14:20:31.679Z,89.10
2018-12-02T14:22:59.864Z,89.30
2018-12-02T14:25:28.096Z,87.80
2018-12-02T14:27:56.231Z,89.60
2018-12-02T14:30:24.753Z,90.30
2018-12-02T14:32:52.922Z,89.20
2018-12-02T14:35:21.060Z,89.30
2018-12-02T14:37:49.220Z,89.70
2018-12-02T14:40:17.410Z,90.50
2018-12-02T14:42:45.603Z,90.80
2018-12-02T14:45:15.975Z,92.50
2018-12-02T14:47:44.159Z,93.40
2018-12-02T14:50:15.666Z,93.80
2018-12-02T14:52:45.580Z,93.80
2018-12-02T14:55:16.780Z,94.20
2018-12-02T14:57:44.928Z,94.20
2018-12-02T15:00:46.624Z,94.50
2018-12-02T15:03:14.754Z,94.80
2018-12-02T15:05:42.902Z,95.40
2018-12-02T15:08:11.129Z,95.80
2018-12-02T15:10:39.418Z,96.20
2018-12-02T15:13:07.570Z,96.70
2018-12-02T15:15:35.726Z,97.10
2018-12-02T15:18:03.838Z,97.70
2018-12-02T15:20:32.004Z,98.00
2018-12-02T15:23:00.130Z,98.60
2018-12-02T15:25:28.302Z,99.00
2018-12-02T15:27:56.459Z,99.40
2018-12-02T15:30:24.607Z,99.90
2018-12-02T15:32:52.771Z,99.90
2018-12-02T15:35:20.983Z,99.90
2018-12-02T15:37:49.127Z,99.90
2018-12-02T15:40:17.928Z,99.90
2018-12-02T15:42:47.328Z,99.90
2018-12-02T15:45:15.804Z,99.90
2018-12-02T15:47:43.945Z,99.90
2018-12-02T15:50:13.297Z,99.90
2018-12-02T15:52:41.455Z,99.90
2018-12-02T15:55:12.113Z,99.90
2018-12-02T15:57:40.238Z,99.90
2018-12-02T16:00:16.847Z,99.90
2018-12-02T16:02:45.028Z,99.90
2018-12-02T16:05:13.269Z,99.90
2018-12-02T16:07:41.462Z,99.90
2018-12-02T16:10:11.670Z,99.90
2018-12-02T16:12:40.267Z,99.90
2018-12-02T16:15:12.529Z,99.90
2018-12-02T16:17:41.015Z,99.90
2018-12-02T16:20:11.525Z,99.90
2018-12-02T16:22:40.141Z,99.90
2018-12-02T16:25:09.036Z,99.90
2018-12-02T16:27:37.206Z,99.90
2018-12-02T16:30:24.897Z,99.90
2018-12-02T16:32:53.812Z,99.90
2018-12-02T16:35:23.184Z,99.90
2018-12-02T16:37:52.548Z,99.90
2018-12-02T16:40:22.312Z,99.90
2018-12-02T16:42:51.418Z,99.90
2018-12-02T16:45:19.577Z,99.90
2018-12-02T16:47:49.135Z,99.90
2018-12-02T16:50:23.572Z,99.90
2018-12-02T16:52:52.662Z,99.90
2018-12-02T16:55:22.530Z,99.90
2018-12-02T16:58:29.486Z,99.90
2018-12-02T17:01:08.246Z,99.90
2018-12-02T17:03:36.422Z,99.90
2018-12-02T17:06:04.603Z,99.90
2018-12-02T17:08:32.767Z,99.90
2018-12-02T17:11:00.972Z,99.90
2018-12-02T17:13:29.262Z,99.90
2018-12-02T17:15:58.568Z,99.90
2018-12-02T17:18:28.415Z,99.90
2018-12-02T17:20:56.584Z,99.90
2018-12-02T17:23:24.791Z,99.90
2018-12-02T17:25:53.439Z,99.90
2018-12-02T17:28:21.605Z,99.90
2018-12-02T17:30:53.690Z,99.90
2018-12-02T17:33:22.282Z,99.90
2018-12-02T17:35:50.585Z,99.90
2018-12-02T17:38:19.603Z,99.90
2018-12-02T17:40:47.789Z,99.90
2018-12-02T17:43:15.987Z,99.90
2018-12-02T17:45:44.099Z,99.90
2018-12-02T17:48:12.240Z,99.90
2018-12-02T17:50:44.896Z,99.90
2018-12-02T17:53:13.766Z,99.90
2018-12-02T17:55:42.246Z,99.90
2018-12-02T17:58:10.528Z,99.90
2018-12-02T18:00:38.737Z,99.90
2018-12-02T18:03:08.325Z,99.90
2018-12-02T18:05:39.910Z,99.90
2018-12-02T18:08:08.048Z,99.90
2018-12-02T18:10:36.469Z,99.90
2018-12-02T18:13:05.577Z,99.90
2018-12-02T18:18:26.615Z,99.90
2018-12-02T18:20:54.717Z,99.90
2018-12-02T18:23:23.110Z,99.90
2018-12-02T18:25:51.575Z,99.90
2018-12-02T18:28:19.730Z,99.90
2018-12-02T18:30:47.886Z,99.90
2018-12-02T18:33:16.637Z,99.90
2018-12-02T18:35:56.723Z,99.90
2018-12-02T18:38:25.659Z,99.90
2018-12-02T18:40:57.506Z,99.90
2018-12-02T18:43:25.744Z,99.90
2018-12-02T18:45:53.894Z,99.90
2018-12-02T18:48:21.996Z,99.90
2018-12-02T18:50:50.215Z,99.90
2018-12-02T18:53:18.330Z,99.90
2018-12-02T18:55:46.504Z,99.90
2018-12-02T18:58:14.618Z,99.90
2018-12-02T19:00:47.619Z,99.90
2018-12-02T19:03:18.648Z,99.90
2018-12-02T19:05:48.008Z,99.90
2018-12-02T19:08:16.166Z,99.90
2018-12-02T19:10:45.490Z,99.90
2018-12-02T19:13:13.632Z,99.90
2018-12-02T19:15:41.816Z,99.90
2018-12-02T19:18:09.924Z,99.90
2018-12-02T19:20:38.095Z,99.90
2018-12-02T19:23:19.107Z,99.90
2018-12-02T19:25:47.497Z,99.90
2018-12-02T19:28:15.781Z,99.90
2018-12-02T19:30:43.938Z,99.90
2018-12-02T19:33:15.323Z,99.90
2018-12-02T19:35:43.487Z,99.90
2018-12-02T19:38:15.750Z,99.90
2018-12-02T19:40:43.870Z,99.90
2018-12-02T19:43:12.078Z,99.90
2018-12-02T19:45:40.223Z,99.90
2018-12-02T19:48:08.366Z,99.90
2018-12-02T19:50:36.497Z,99.90
2018-12-02T19:53:04.681Z,99.90
2018-12-02T19:55:33.809Z,99.90
2018-12-02T19:58:00.986Z,99.90
2018-12-02T20:00:34.611Z,99.90
2018-12-02T20:03:02.784Z,99.90
2018-12-02T20:05:31.081Z,99.90
2018-12-02T20:08:00.819Z,99.90
2018-12-02T20:10:30.255Z,99.90
2018-12-02T20:13:02.749Z,99.90
2018-12-02T20:15:31.022Z,99.90
2018-12-02T20:17:59.194Z,99.90
2018-12-02T20:20:32.855Z,99.90
2018-12-02T20:23:01.125Z,99.90
2018-12-02T20:25:29.307Z,99.90
2018-12-02T20:28:00.339Z,99.90
2018-12-02T20:30:29.567Z,99.90
2018-12-02T20:39:58.472Z,99.90
2018-12-02T20:42:26.641Z,99.90
2018-12-02T20:44:55.006Z,99.90
2018-12-02T20:47:23.248Z,99.90
2018-12-02T20:49:51.630Z,99.90
2018-12-02T20:52:20.246Z,99.90
2018-12-02T20:54:48.666Z,99.90
2018-12-02T20:57:16.912Z,99.90
2018-12-02T20:59:45.055Z,99.90
2018-12-02T21:02:13.313Z,99.90
2018-12-02T21:04:41.543Z,99.90
2018-12-02T21:07:09.789Z,99.90
2018-12-02T21:09:37.955Z,99.90
2018-12-02T21:12:06.258Z,99.90
2018-12-02T21:14:34.423Z,99.90
2018-12-02T21:17:02.545Z,99.90
2018-12-02T21:19:30.722Z,99.90
2018-12-02T21:21:58.857Z,99.90
2018-12-02T21:24:27.031Z,99.90
2018-12-02T21:26:55.221Z,99.90
2018-12-02T21:29:23.388Z,99.90
2018-12-02T21:31:51.571Z,99.90
2018-12-02T21:34:19.694Z,99.90
2018-12-02T21:36:47.834Z,99.90
2018-12-02T21:39:15.985Z,99.90
2018-12-02T21:41:44.149Z,99.90
2018-12-02T21:44:12.335Z,99.90
2018-12-02T21:46:40.457Z,99.90
2018-12-02T21:49:08.635Z,99.90
2018-12-02T21:51:36.810Z,99.90
2018-12-02T21:54:05.587Z,99.90
2018-12-02T21:56:34.011Z,99.90
2018-12-02T21:59:02.126Z,99.90
2018-12-02T22:01:30.379Z,99.90
2018-12-02T22:03:58.539Z,99.90
2018-12-02T22:06:26.783Z,99.90
2018-12-02T22:08:54.923Z,99.90
2018-12-02T22:11:23.098Z,99.90
2018-12-02T22:13:51.245Z,99.90
2018-12-02T22:16:19.548Z,99.90
2018-12-02T22:18:47.719Z,99.90
2018-12-02T22:21:15.871Z,99.90
2018-12-02T22:23:45.199Z,99.90
2018-12-02T22:26:13.329Z,99.90
2018-12-02T22:28:41.517Z,99.90
2018-12-02T22:31:09.682Z,99.90
2018-12-02T22:33:37.860Z,99.90
2018-12-02T22:36:06.167Z,99.90
2018-12-02T22:38:34.308Z,99.90
2018-12-02T22:41:02.480Z,99.90
2018-12-02T22:43:30.614Z,99.90
2018-12-02T22:45:58.730Z,99.90
2018-12-02T22:48:26.876Z,99.90
2018-12-02T22:50:55.035Z,99.90
2018-12-02T22:53:23.646Z,99.90
2018-12-02T22:55:51.346Z,99.90
2018-12-02T22:58:19.572Z,99.90
2018-12-02T23:08:40.885Z,99.90
2018-12-02T23:11:10.472Z,99.90
2018-12-02T23:13:39.818Z,99.90
2018-12-02T23:16:09.287Z,99.90
2018-12-02T23:18:38.647Z,99.90
2018-12-02T23:21:08.016Z,99.90
2018-12-02T23:23:37.636Z,99.90
2018-12-02T23:26:07.374Z,99.90
2018-12-02T23:28:36.721Z,99.90
2018-12-02T23:31:06.224Z,99.90
2018-12-02T23:33:35.666Z,99.90
2018-12-02T23:36:05.961Z,99.90
2018-12-02T23:38:36.440Z,99.90
2018-12-02T23:41:06.149Z,99.90
2018-12-02T23:43:35.504Z,99.90
2018-12-02T23:46:04.980Z,99.90
2018-12-02T23:48:34.340Z,99.90
2018-12-02T23:51:03.810Z,99.90
2018-12-02T23:53:33.311Z,99.90
2018-12-02T23:56:02.723Z,99.90
2018-12-02T23:58:32.055Z,99.90
